logo
Games tagged LEGO
# Game Release date
Price
Score rank
(Userscore / Metascore)
Owners
Players
Playtime (Median)
Developer(s)
Publisher(s)
1 LEGO Batman 2: DC Super Heroes Jun 22, 2012 $4.99N/A (N/A/81%)200,000 .. 500,0000%00:00 (00:00)TT GamesWarner Bros. Interactive Entertainment
2 LEGO The Lord of the Rings Nov 27, 2012 $19.99N/A (N/A/80%)1,000,000 .. 2,000,0000%00:00 (00:00)Traveller's TalesWarner Bros. Interactive Entertainment
3 LEGO Harry Potter: Years 5-7 Jan 5, 2012 $19.99N/A (N/A/80%)200,000 .. 500,0000%00:00 (00:00)Traveller's TalesWarner Bros. Interactive Entertainment
4 LEGO City Undercover Apr 4, 2017 $19.99N/A (N/A/80%)500,000 .. 1,000,0000%00:00 (00:00)Traveller's TalesTT Games
5 LEGO Batman: The Videogame Sep 29, 2008 $4.99N/A (N/A/80%)500,000 .. 1,000,0000%00:00 (00:00)Traveller's TalesWarner Bros. Interactive Entertainment
6 LEGO Harry Potter: Years 1-4 Jun 25, 2010 $19.99N/A (N/A/79%)500,000 .. 1,000,0000%00:00 (00:00)TT GamesWarner Bros. Interactive Entertainment
7 LEGO Marvel Super Heroes Oct 22, 2013 $19.99N/A (N/A/78%)1,000,000 .. 2,000,0000.85%00:03 (00:01)Traveller's TalesWarner Bros. Interactive Entertainment
8 LEGO Indiana Jones: The Original Adventures Jun 3, 2008 $19.99N/A (N/A/78%)100,000 .. 200,0000%00:00 (00:00)Traveller's TalesLucasArts, Lucasfilm, Disney
9 LEGO Star Wars - The Complete Saga Nov 12, 2009 $19.99N/A (N/A/77%)1,000,000 .. 2,000,0000.78%00:08 (00:02)Traveller's TalesLucasArts, Lucasfilm, Disney
10 LEGO Star Wars III - The Clone Wars Mar 22, 2011 $19.99N/A (N/A/76%)500,000 .. 1,000,0001.82%01:02 (00:20)Traveller's TalesLucasArts, Lucasfilm, Disney
11 LEGO DC Super-Villains Oct 16, 2018 $5.99N/A (N/A/76%)200,000 .. 500,0002.5%08:36 (02:52)TT Games, Feral Interactive (Mac)Warner Bros. Interactive Entertainment, Feral Interactive (Mac)
12 LEGO Jurassic World Jun 11, 2015 $19.99N/A (N/A/72%)500,000 .. 1,000,0001.75%08:45 (02:55)TT Games LtdWarner Bros. Interactive Entertainment
13 LEGO Indiana Jones 2: The Adventure Continues Feb 18, 2010 $19.99N/A (N/A/66%)50,000 .. 100,0000%00:00 (00:00)Traveller's TalesLucasArts, Lucasfilm, Disney
14 Brick Building Jul 27, 2020 FreeN/A (N/A)100,000 .. 200,0000%00:00 (00:00)VR LabsVR Labs
15 King Rabbit - Puzzle Jan 25, 2019 FreeN/A (N/A)20,000 .. 50,0000%00:00 (00:00)RareSlothRareSloth
16 Bulk Dominoes VR: Kinetic Rush Nov 24, 2020 FreeN/A (N/A)0 .. 20,0000%00:00 (00:00)GuessworkVRBulk Dominoes
17 Gamecraft May 10, 2019 N/AN/A (N/A)50,000 .. 100,0000%00:00 (00:00)FreejamFreejam
18 Return home Sep 15, 2021 $5.99N/A (N/A)0 .. 20,0000%00:00 (00:00)苒紫网络苒紫网络
19 Pow! Sep 24, 2021 $0.99N/A (N/A)0 .. 20,0000%00:00 (00:00)The 25th StudioThe 25th Studio
20 Boulders: Puzzle Oct 2, 2021 FreeN/A (N/A)0 .. 20,0000%00:00 (00:00)Farewell GamesFarewell Games
21 Stumble Guys Oct 7, 2021 N/AN/A (N/A)2,000,000 .. 5,000,00019.09%03:29 (04:32)Kitka GamesKitka Games
22 Bricky to Me Nov 4, 2021 $2.99N/A (N/A)0 .. 20,0000%00:00 (00:00)IdunaSoftIdunaSoft
23 Creator's Asteroid Dec 21, 2021 $3.99N/A (N/A)0 .. 20,0000%00:00 (00:00)decigrahamdecigraham
24 Box Nation [] Lets Go Build and Fight Apr 6, 2020 $9.99N/A (N/A)0 .. 20,0000%00:00 (00:00)HedeHede
25 Art of Destruction Feb 14, 2022 $1.99N/A (N/A)0 .. 20,0000%00:00 (00:00)ZHANG FANZHANG FAN
26 Puzzle Light: Connect Sep 10, 2021 $0.99N/A (N/A)0 .. 20,0000%00:00 (00:00)Waidy AndradeCronostase
27 战斗俄罗斯方块 Jul 27, 2021 $4.99N/A (N/A)0 .. 20,0000%00:00 (00:00)lanqing gamelanqing game
28 Color Cube Dec 26, 2020 $0.59N/A (N/A)0 .. 20,0000%00:00 (00:00)NanningsGamesNanningsGames
29 Nimbatus - The Space Drone Constructor May 14, 2020 $19.99N/A (N/A)100,000 .. 200,0000%00:00 (00:00)Stray Fawn StudioStray Fawn Studio, WhisperGames
30 Head Bumper: Editcraft Sep 19, 2020 $0.99N/A (N/A)20,000 .. 50,0000%00:00 (00:00)Blue Spot GamesBlue Spot Games
31 Messy Room Simulator Sep 21, 2020 $4.99N/A (N/A)0 .. 20,0000%00:00 (00:00)Kether StudioKether Studio
32 Mason: Building Bricks Nov 9, 2020 $19.99N/A (N/A)0 .. 20,0000%00:00 (00:00)TelegmaticTelegmatic
33 SMIB: Mission Cure Nov 19, 2020 $1.99N/A (N/A)20,000 .. 50,0000%00:00 (00:00)Virtual Arts StudioVirtual Arts Studio
34 Diorama Builder Nov 20, 2020 $2.99N/A (N/A)0 .. 20,0000%00:00 (00:00)Virtual Arts StudioVirtual Arts Studio
35 Ellie's Travel Diary Dec 7, 2020 $8.99N/A (N/A)0 .. 20,0000%00:00 (00:00)Newmatic Co., Ltd.Newmatic Co., Ltd.
36 Zup! Z Dec 21, 2020 $0.99N/A (N/A)200,000 .. 500,0000%00:00 (00:00)Quiet RiverQuiet River
37 Table Soccer Club Dec 22, 2020 $0.99N/A (N/A)0 .. 20,0000%00:00 (00:00)J.LiLimeade Games
38 Jamie's Toy Box Jul 23, 2021 $8.99N/A (N/A)20,000 .. 50,0000%00:00 (00:00)Milos Baskic, Agnieszka Michalska, Daniel ButlerQuarant Inc.
39 Cargo Transportation: Low Poly Jan 13, 2021 $2.99N/A (N/A)20,000 .. 50,0000%00:00 (00:00)Laush Dmitriy SergeevichLaush Studio
40 HUNDUN Mar 27, 2021 $1.49N/A (N/A)0 .. 20,0000%00:00 (00:00)MaYong mymMaYong
41 Ladder Box Apr 6, 2021 $2.99N/A (N/A)0 .. 20,0000%00:00 (00:00)fengjiongmaxfengjoingmax
42 FortressCraft : Chapter 1 Apr 16, 2021 $9.99N/A (N/A)0 .. 20,0000%00:00 (00:00)ProjectorGamesProjectorGames
43 Military Base War Apr 29, 2021 $4.99N/A (N/A)0 .. 20,0000%00:00 (00:00)Sarhan SoftSarhan Soft
44 The Awakening of Mummies May 13, 2021 $1.39N/A (N/A)0 .. 20,0000%00:00 (00:00)Virtual Arts StudioVirtual Arts Studio
45 LEGO Builder's Journey Jun 22, 2021 $19.99N/A (N/A)50,000 .. 100,00011.11%00:06 (00:02)Light Brick StudioLEGO® Games
46 Home Creator Jul 9, 2021 $0.99N/A (N/A)0 .. 20,0000%00:00 (00:00)Sweet GamesSweet Games
47 Brick Rigs Nov 7, 2016 $14.99N/A (N/A)1,000,000 .. 2,000,0002.86%00:41 (00:13)Lukas RustemeyerLukas Rustemeyer
48 3D Math - Ultra May 15, 2020 $0.99N/A (N/A)0 .. 20,0000%00:00 (00:00)Big Mind Games 9000Big Mind Games 9000
49 Colorful 3D II Mar 6, 2020 $4.99N/A (N/A)0 .. 20,0000%00:00 (00:00)SuntmSuntm
50 Shadowforge Feb 26, 2020 N/AN/A (N/A)0 .. 20,0000%00:00 (00:00)MibliMibli
51 Besiege Feb 18, 2020 $14.99N/A (N/A)2,000,000 .. 5,000,0000.36%00:02 (00:00)Spiderling StudiosSpiderling Studios
52 Factory Coin Mining Apr 15, 2019 $19.99N/A (N/A)0 .. 20,0000%00:00 (00:00)Thetis GamesThetis Games
53 Trailmakers Sep 18, 2019 $24.99N/A (N/A)200,000 .. 500,0004.92%02:37 (02:05)FlashbulbFlashbulb
54 The LEGO Movie 2 Videogame Feb 26, 2019 $14.99N/A (N/A)100,000 .. 200,0004.76%29:53 (09:57)TT Games, Feral interactive (Mac)Warner Bros. Interactive Entertainment, Feral interactive (Mac)
55 Islet Online Feb 12, 2019 $16.99N/A (N/A)20,000 .. 50,0000%00:00 (00:00)Morenori SoftMorenori Soft
56 Doggo Dig Down Nov 12, 2018 $3.99N/A (N/A)0 .. 20,0000%00:00 (00:00)Roppy Chop StudiosRoppy Chop Studios
57 Feelin Aug 22, 2018 $6.99N/A (N/A)0 .. 20,0000%00:00 (00:00)Feelin GamesFeelin Games
58 LEGO The Incredibles Jun 15, 2018 $39.99N/A (N/A)50,000 .. 100,0000%00:00 (00:00)TT Games, Feral Interactive (Mac)Warner Bros. Interactive Entertainment, Feral Interactive (Mac)
59 LEGO Marvel Super Heroes 2 Nov 14, 2017 $19.99N/A (N/A)200,000 .. 500,0003.77%01:24 (00:55)TT Games, Feral Interactive (Mac)Warner Bros. Interactive, Feral Interactive (Mac)
60 The LEGO NINJAGO Movie Video Game Sep 22, 2017 $19.99N/A (N/A)1,000,000 .. 2,000,0000%00:00 (00:00)Traveller's Tales, TT GamesWarner Bros. Interactive Entertainment
61 LEGO Worlds Mar 7, 2017 $29.99N/A (N/A)500,000 .. 1,000,0001.59%00:01 (00:00)TT Games, Traveller's TalesWarner Bros. Interactive Entertainment
62 NightZ Feb 14, 2017 $0.99N/A (N/A)20,000 .. 50,0000%00:00 (00:00)Asset Flip StudioAsset Flip Studio
63 Pow! 2 Mar 7, 2022 $0.99N/A (N/A)0 .. 20,0000%00:00 (00:00)The 25th StudioThe 25th Studio
64 LEGO STAR WARS: The Force Awakens Jun 27, 2016 $19.99N/A (N/A)500,000 .. 1,000,0001.61%12:25 (04:08)Traveller's Tales, TT Games, Feral Interactive (Mac)Warner Bros. Interactive Entertainment, Feral Interactive (Mac)
65 ChaosTower Feb 23, 2016 $4.99N/A (N/A)0 .. 20,0000%00:00 (00:00)CashcowGamesCashcowGames
66 LEGO MARVEL's Avengers Jan 26, 2016 $19.99N/A (N/A)500,000 .. 1,000,0000%00:00 (00:00)Traveller's Tales, TT Games, Feral Interactive (Mac)Warner Bros. Interactive Entertainment, Feral Interactive (Mac)
67 LEGO Batman 3: Beyond Gotham Nov 11, 2014 $4.99N/A (N/A)500,000 .. 1,000,0001.11%15:22 (05:07)TT Games LtdWB Games
68 LEGO Pirates of the Caribbean: The Video Game May 24, 2011 $19.99N/A (N/A)200,000 .. 500,0000%00:00 (00:00)Traveller's TalesDisney
69 LEGO The Hobbit Apr 8, 2014 $19.99N/A (N/A)500,000 .. 1,000,0000.38%19:32 (06:30)Traveller's Tales, Feral Interactive (Mac)Warner Bros. Interactive Entertainment, Feral Interactive (Mac)
70 The LEGO Movie - Videogame Feb 7, 2014 $14.99N/A (N/A)200,000 .. 500,0006%03:12 (03:01)TT Fusion, Traveller's TalesWarner Bros. Interactive Entertainment
71 Blockland Feb 28, 2007 $9.99N/A (N/A)200,000 .. 500,0000%00:00 (00:00)Eric Hartman, Ben Garney, Anthony RotondoStep 1 Games LLC
72 Build Lands Aug 4, 2022 $3.99N/A (N/A)0 .. 20,0000%00:00 (00:00)Yaw StudiosYaw Studios
73 Mini Maker: Make A Thing Jun 28, 2022 $9.99N/A (N/A)0 .. 20,0000%00:00 (00:00)Casa RaraCasa Rara
74 Pentomino May 31, 2022 $3.99N/A (N/A)0 .. 20,0000%00:00 (00:00)zeroSpacezeroSpace
75 剑冢 Swords Tomb May 5, 2022 $4.99N/A (N/A)0 .. 20,0000%00:00 (00:00)游戏事业接班人没有发行
76 ABRISS - build to destroy Apr 14, 2022 $16.99N/A (N/A)20,000 .. 50,0000%00:00 (00:00)RandwerkRandwerk
77 LEGO Star Wars: The Skywalker Saga Apr 5, 2022 $34.99N/A (N/A)500,000 .. 1,000,0005.81%02:46 (03:48)TT GamesWarner Bros. Games, Warner Bros. Interactive Entertainment
Overview

LEGO

Games with this tag: 77
Average userscore: N/A%
Average metascore: 77.15%
Average playtime: 06:07
Total copies owned: 21,957,000
Average price: $11.28
Help

Owners: Estimated number of people owning this game. The number might be way too small for new releases and sometimes way too big for games that had free weekend event recently. Read more on About page.

Playtime: Average hours played in total per person that have actually launched this game since March 2009. This time is calculated for the whole lifetime, not for the particular year.

Average score: Average users and metacritic score for all games with this score assigned.

Average playtime: Average lifetime playtime for all games where this data is available.

Games in this genre: Self-explaining - number of games with this tag. Only inculdes games with sales data available.

Total copies owned: Refers to total copies of games with this tag acquired by users for the lifetime. Includes copies sold, downloaded for free and given out.

This number might be too small for recently released games or too big for games that had a free weekend in the last couple of months.

Graphs

Login required.

Please register or log in to see this information.

Login required.

Please register or log in to see this information.